Startpagina
METAR-TAF:

METAR-TAF

Vliegvelden :

Newquay Cornwall, Engeland

breedte: 50-26N, lengte: 005-00W, hoogte: 119 m

Actueel weer

Dit bericht is 31 minuten geleden gemaakt, om 19:20 UTC
Wind 16 kt uit het noordnoordoosten
Temperatuur 13°C
Vochtigheid 94%
Druk 1009 hPa
Zicht 10 km of meer

METAR: EGHQ 031920Z AUTO 02016KT 9999 BKN009/// 13/12 Q1009

Tijdstip: 20:51 (19:51 UTC)

Verwachting

Dit bericht is 5 uur en het 56 minuten geleden gemaakt, om 13:55 UTC
Verwachting geldig van 03 om 15 UTC tot 03 om 24 UTC
Wind 13 kt uit het noorden
Zicht 10 km of meer
Gebroken wolken op 2500 ft
Tijdelijke
van 03 om 15 UTC tot 03 om 22 UTC
Zicht: 6000 m
Gebroken wolken op 700 ft
regen

TAF: EGHQ 031355Z 0315/0324 01013KT 9999 BKN025 TEMPO 0315/0322 6000 RA BKN007

Waarnemingen en weersverwachtingen van meer dan 4000 vliegvelden (METAR en TAF).

De beschikbare stations zijn de gele en rode punten op de kaart.

Ga met uw muis naar het station om de naam te zien.

Klik dan om waarnemingen en weersverwachtingen te zien.

kaart wijzigen: klik op de groene knoppen met een zwart kruis om in te zoomen, op de groene knop met een streepje om uit te zoomen of op de groene pijlen voor aangrenzende kaarten.


METAR-TAF: